Time,TemperatureF,DewpointF,PressureIn,WindDirection,WindDirectionDegrees,WindSpeedMPH,WindSpeedGustMPH,Humidity,HourlyPrecipIn,Conditions,Clouds,dailyrainin,SoftwareType,DateUTC
2013-10-09 00:07:00,44.3,42.0,30.34,NE,41,0.0,1.0,91,0.01,,,0.00,weatherlink.com 1.10,2013-10-09 04:07:00,
2013-10-09 00:22:00,44.0,42.0,30.35,NE,41,0.0,0.0,91,0.01,,,0.00,weatherlink.com 1.10,2013-10-09 04:22:00,
2013-10-09 00:37:00,43.6,42.0,30.34,NE,41,0.0,1.0,92,0.00,,,0.00,weatherlink.com 1.10,2013-10-09 04:37:00,
2013-10-09 00:52:00,43.2,41.0,30.34,NE,41,0.0,0.0,92,0.00,,,0.00,weatherlink.com 1.10,2013-10-09 04:52:00,
2013-10-09 01:07:00,43.7,41.0,30.34,NE,41,0.0,2.0,91,0.00,,,0.00,weatherlink.com 1.10,2013-10-09 05:07:00,
2013-10-09 01:22:00,43.3,41.0,30.34,NE,41,0.0,2.0,91,0.00,,,0.00,weatherlink.com 1.10,2013-10-09 05:22:00,
2013-10-09 01:37:00,43.2,41.0,30.35,NE,41,0.0,1.0,92,0.00,,,0.00,weatherlink.com 1.10,2013-10-09 05:37:00,
2013-10-09 01:52:00,43.2,41.0,30.35,NE,41,0.0,0.0,92,0.00,,,0.00,weatherlink.com 1.10,2013-10-09 05:52:00,
2013-10-09 02:07:00,42.8,41.0,30.36,NE,41,0.0,0.0,92,0.00,,,0.00,weatherlink.com 1.10,2013-10-09 06:07:00,
2013-10-09 02:22:00,42.8,41.0,30.35,NE,41,0.0,0.0,93,0.00,,,0.00,weatherlink.com 1.10,2013-10-09 06:22:00,
2013-10-09 02:37:00,42.8,41.0,30.35,NE,41,0.0,1.0,92,0.00,,,0.00,weatherlink.com 1.10,2013-10-09 06:37:00,
2013-10-09 02:52:00,42.3,41.0,30.35,NE,41,0.0,0.0,93,0.00,,,0.00,weatherlink.com 1.10,2013-10-09 06:52:00,
2013-10-09 03:07:00,42.2,41.0,30.36,NE,41,0.0,0.0,94,0.00,,,0.00,weatherlink.com 1.10,2013-10-09 07:07:00,
2013-10-09 03:22:00,42.0,40.0,30.36,NE,41,1.0,1.0,94,0.00,,,0.00,weatherlink.com 1.10,2013-10-09 07:22:00,
2013-10-09 03:37:00,42.3,41.0,30.36,NE,41,0.0,0.0,93,0.00,,,0.00,weatherlink.com 1.10,2013-10-09 07:37:00,
2013-10-09 03:52:00,41.9,40.0,30.36,NE,41,0.0,1.0,93,0.00,,,0.00,weatherlink.com 1.10,2013-10-09 07:52:00,
2013-10-09 04:07:00,42.2,41.0,30.37,NE,41,0.0,0.0,95,0.00,,,0.00,weatherlink.com 1.10,2013-10-09 08:07:00,
2013-10-09 04:22:00,42.2,41.0,30.37,NE,41,0.0,2.0,94,0.00,,,0.00,weatherlink.com 1.10,2013-10-09 08:22:00,
2013-10-09 04:37:00,41.8,40.0,30.37,NE,41,0.0,0.0,94,0.00,,,0.00,weatherlink.com 1.10,2013-10-09 08:37:00,
2013-10-09 04:52:00,41.8,40.0,30.38,NE,41,0.0,0.0,94,0.00,,,0.00,weatherlink.com 1.10,2013-10-09 08:52:00,
2013-10-09 05:07:00,41.6,40.0,30.38,NE,41,0.0,0.0,95,0.00,,,0.00,weatherlink.com 1.10,2013-10-09 09:07:00,
2013-10-09 05:22:00,41.8,40.0,30.38,NE,41,0.0,0.0,94,0.00,,,0.00,weatherlink.com 1.10,2013-10-09 09:22:00,
2013-10-09 05:37:00,41.8,41.0,30.38,NE,41,0.0,0.0,95,0.00,,,0.00,weatherlink.com 1.10,2013-10-09 09:37:00,
2013-10-09 05:52:00,41.8,40.0,30.38,NE,41,0.0,0.0,93,0.00,,,0.00,weatherlink.com 1.10,2013-10-09 09:52:00,
2013-10-09 06:07:00,41.4,40.0,30.39,NE,41,0.0,0.0,94,0.00,,,0.00,weatherlink.com 1.10,2013-10-09 10:07:00,
2013-10-09 06:22:00,41.6,40.0,30.38,NE,41,0.0,0.0,92,0.00,,,0.00,weatherlink.com 1.10,2013-10-09 10:22:00,
2013-10-09 06:37:00,41.4,39.0,30.39,NE,41,0.0,0.0,91,0.00,,,0.00,weatherlink.com 1.10,2013-10-09 10:37:00,
2013-10-09 06:52:00,41.4,39.0,30.39,NE,41,0.0,1.0,91,0.00,,,0.00,weatherlink.com 1.10,2013-10-09 10:52:00,
2013-10-09 07:07:00,41.5,40.0,30.39,NE,41,0.0,0.0,93,0.00,,,0.00,weatherlink.com 1.10,2013-10-09 11:07:00,
2013-10-09 07:22:00,42.2,40.0,30.39,NE,41,0.0,0.0,91,0.00,,,0.00,weatherlink.com 1.10,2013-10-09 11:22:00,
2013-10-09 07:37:00,42.4,40.0,30.40,NE,41,0.0,0.0,91,0.00,,,0.00,weatherlink.com 1.10,2013-10-09 11:37:00,
2013-10-09 07:52:00,43.3,41.0,30.41,NE,41,0.0,0.0,91,0.00,,,0.00,weatherlink.com 1.10,2013-10-09 11:52:00,
2013-10-09 08:07:00,44.1,41.0,30.41,NE,41,0.0,0.0,90,0.00,,,0.00,weatherlink.com 1.10,2013-10-09 12:07:00,
2013-10-09 08:22:00,45.5,43.0,30.41,NE,41,0.0,1.0,91,0.00,,,0.00,weatherlink.com 1.10,2013-10-09 12:22:00,
2013-10-09 08:37:00,46.6,43.0,30.41,NE,42,0.0,1.0,88,0.00,,,0.00,weatherlink.com 1.10,2013-10-09 12:37:00,
2013-10-09 08:53:00,47.4,45.0,30.42,NE,42,0.0,0.0,90,0.00,,,0.00,weatherlink.com 1.10,2013-10-09 12:53:00,
2013-10-09 09:08:00,50.8,45.0,30.42,SSE,150,0.0,3.0,81,0.00,,,0.00,weatherlink.com 1.10,2013-10-09 13:08:00,
2013-10-09 09:23:00,51.3,43.0,30.43,SW,217,0.0,3.0,72,0.00,,,0.00,weatherlink.com 1.10,2013-10-09 13:23:00,
2013-10-09 09:38:00,52.6,42.0,30.43,SSW,209,3.0,3.0,67,0.00,,,0.00,weatherlink.com 1.10,2013-10-09 13:38:00,
2013-10-09 09:53:00,53.1,40.0,30.43,SW,230,0.0,5.0,61,0.00,,,0.00,weatherlink.com 1.10,2013-10-09 13:53:00,
2013-10-09 10:08:00,54.0,42.0,30.42,SSW,213,1.0,6.0,65,0.00,,,0.00,weatherlink.com 1.10,2013-10-09 14:08:00,
2013-10-09 10:23:00,54.7,43.0,30.42,SSE,165,1.0,7.0,64,0.00,,,0.00,weatherlink.com 1.10,2013-10-09 14:23:00,
2013-10-09 10:38:00,54.5,41.0,30.41,SSW,211,3.0,6.0,61,0.00,,,0.00,weatherlink.com 1.10,2013-10-09 14:38:00,
2013-10-09 10:53:00,55.5,42.0,30.41,SSW,213,3.0,6.0,60,0.00,,,0.00,weatherlink.com 1.10,2013-10-09 14:53:00,
2013-10-09 11:08:00,55.9,41.0,30.40,SSW,207,4.0,6.0,58,0.00,,,0.00,weatherlink.com 1.10,2013-10-09 15:08:00,
2013-10-09 11:23:00,56.1,41.0,30.40,SSW,200,2.0,5.0,57,0.00,,,0.00,weatherlink.com 1.10,2013-10-09 15:23:00,
2013-10-09 11:38:00,55.8,40.0,30.40,SSW,203,2.0,7.0,55,0.00,,,0.00,weatherlink.com 1.10,2013-10-09 15:38:00,
2013-10-09 11:53:00,56.3,40.0,30.40,SW,218,4.0,6.0,55,0.00,,,0.00,weatherlink.com 1.10,2013-10-09 15:53:00,
2013-10-09 12:08:00,56.6,39.0,30.40,SW,226,2.0,6.0,53,0.00,,,0.00,weatherlink.com 1.10,2013-10-09 16:08:00,
2013-10-09 12:23:00,56.1,39.0,30.40,SSW,205,5.0,6.0,53,0.00,,,0.00,weatherlink.com 1.10,2013-10-09 16:23:00,
2013-10-09 12:38:00,57.0,39.0,30.40,SSW,193,0.0,7.0,51,0.00,,,0.00,weatherlink.com 1.10,2013-10-09 16:38:00,
2013-10-09 12:53:00,57.6,40.0,30.39,SSW,192,2.0,7.0,52,0.00,,,0.00,weatherlink.com 1.10,2013-10-09 16:53:00,
2013-10-09 13:08:00,58.4,40.0,30.38,SW,229,2.0,5.0,51,0.00,,,0.00,weatherlink.com 1.10,2013-10-09 17:08:00,
2013-10-09 13:23:00,58.5,40.0,30.38,SSW,203,3.0,7.0,51,0.00,,,0.00,weatherlink.com 1.10,2013-10-09 17:23:00,
2013-10-09 13:38:00,58.4,40.0,30.37,SSW,205,2.0,10.0,50,0.00,,,0.00,weatherlink.com 1.10,2013-10-09 17:38:00,
2013-10-09 13:53:00,58.9,40.0,30.37,SW,229,3.0,6.0,49,0.00,,,0.00,weatherlink.com 1.10,2013-10-09 17:53:00,
2013-10-09 14:08:00,59.1,40.0,30.36,SSW,203,0.0,5.0,49,0.00,,,0.00,weatherlink.com 1.10,2013-10-09 18:08:00,
2013-10-09 14:23:00,59.4,41.0,30.36,ESE,117,1.0,6.0,50,0.00,,,0.00,weatherlink.com 1.10,2013-10-09 18:23:00,
2013-10-09 14:38:00,59.3,40.0,30.36,South,186,2.0,4.0,49,0.00,,,0.00,weatherlink.com 1.10,2013-10-09 18:38:00,
2013-10-09 14:53:00,59.1,39.0,30.35,SSW,205,2.0,4.0,48,0.00,,,0.00,weatherlink.com 1.10,2013-10-09 18:53:00,
2013-10-09 15:08:00,59.0,40.0,30.35,SW,230,1.0,5.0,49,0.00,,,0.00,weatherlink.com 1.10,2013-10-09 19:08:00,
2013-10-09 15:23:00,58.8,39.0,30.36,SW,222,1.0,7.0,49,0.00,,,0.00,weatherlink.com 1.10,2013-10-09 19:23:00,
2013-10-09 15:38:00,58.4,40.0,30.36,SW,233,1.0,5.0,51,0.00,,,0.00,weatherlink.com 1.10,2013-10-09 19:38:00,
2013-10-09 15:53:00,58.4,40.0,30.35,SW,225,0.0,6.0,50,0.00,,,0.00,weatherlink.com 1.10,2013-10-09 19:53:00,
2013-10-09 16:08:00,58.2,40.0,30.35,SSW,207,1.0,5.0,52,0.00,,,0.00,weatherlink.com 1.10,2013-10-09 20:08:00,
2013-10-09 16:23:00,58.2,40.0,30.34,SSW,197,1.0,4.0,52,0.00,,,0.00,weatherlink.com 1.10,2013-10-09 20:23:00,
2013-10-09 16:38:00,58.0,41.0,30.34,WSW,249,0.0,3.0,54,0.00,,,0.00,weatherlink.com 1.10,2013-10-09 20:38:00,
2013-10-09 16:53:00,57.7,41.0,30.34,WSW,249,0.0,0.0,55,0.00,,,0.00,weatherlink.com 1.10,2013-10-09 20:53:00,
2013-10-09 17:08:00,57.1,43.0,30.34,WSW,249,0.0,0.0,60,0.00,,,0.00,weatherlink.com 1.10,2013-10-09 21:08:00,
2013-10-09 17:23:00,55.9,45.0,30.34,WSW,249,0.0,0.0,66,0.00,,,0.00,weatherlink.com 1.10,2013-10-09 21:23:00,
2013-10-09 17:38:00,55.3,44.0,30.34,WSW,249,0.0,0.0,67,0.00,,,0.00,weatherlink.com 1.10,2013-10-09 21:38:00,
2013-10-09 17:53:00,54.6,45.0,30.34,WSW,249,0.0,0.0,69,0.00,,,0.00,weatherlink.com 1.10,2013-10-09 21:53:00,
2013-10-09 18:08:00,53.8,46.0,30.34,WSW,249,0.0,0.0,76,0.00,,,0.00,weatherlink.com 1.10,2013-10-09 22:08:00,
2013-10-09 18:23:00,52.2,46.0,30.34,WSW,249,0.0,0.0,79,0.00,,,0.00,weatherlink.com 1.10,2013-10-09 22:23:00,
2013-10-09 18:38:00,51.5,45.0,30.34,WSW,249,0.0,0.0,79,0.00,,,0.00,weatherlink.com 1.10,2013-10-09 22:38:00,
2013-10-09 18:53:00,51.0,45.0,30.34,WSW,249,0.0,0.0,81,0.00,,,0.00,weatherlink.com 1.10,2013-10-09 22:53:00,
2013-10-09 19:08:00,50.7,45.0,30.33,WSW,249,0.0,0.0,82,0.00,,,0.00,weatherlink.com 1.10,2013-10-09 23:08:00,
2013-10-09 19:24:00,50.0,45.0,30.33,WSW,249,0.0,0.0,84,0.00,,,0.00,weatherlink.com 1.10,2013-10-09 23:24:00,
2013-10-09 19:39:00,49.4,44.0,30.33,WSW,249,0.0,0.0,83,0.00,,,0.00,weatherlink.com 1.10,2013-10-09 23:39:00,
2013-10-09 19:54:00,49.2,45.0,30.33,WSW,249,0.0,0.0,85,0.00,,,0.00,weatherlink.com 1.10,2013-10-09 23:54:00,
2013-10-09 20:09:00,48.7,45.0,30.34,WSW,249,0.0,0.0,86,0.00,,,0.00,weatherlink.com 1.10,2013-10-10 00:09:00,
2013-10-09 20:24:00,48.9,45.0,30.34,WSW,249,0.0,0.0,85,0.00,,,0.00,weatherlink.com 1.10,2013-10-10 00:24:00,
2013-10-09 20:39:00,48.7,45.0,30.34,WSW,249,0.0,0.0,86,0.00,,,0.00,weatherlink.com 1.10,2013-10-10 00:39:00,
2013-10-09 20:54:00,47.9,44.0,30.34,WSW,249,0.0,0.0,87,0.00,,,0.00,weatherlink.com 1.10,2013-10-10 00:54:00,
2013-10-09 21:24:00,47.5,44.0,30.34,WSW,249,0.0,0.0,88,0.00,,,0.00,weatherlink.com 1.10,2013-10-10 01:24:00,
2013-10-09 21:39:00,47.0,44.0,30.34,WSW,249,0.0,0.0,89,0.00,,,0.00,weatherlink.com 1.10,2013-10-10 01:39:00,
2013-10-09 21:54:00,47.2,44.0,30.34,NW,320,0.0,0.0,88,0.00,,,0.00,weatherlink.com 1.10,2013-10-10 01:54:00,
2013-10-09 22:09:00,47.0,44.0,30.34,NNW,341,0.0,0.0,90,0.00,,,0.00,weatherlink.com 1.10,2013-10-10 02:09:00,
2013-10-09 22:24:00,46.7,44.0,30.34,NNW,342,0.0,0.0,90,0.00,,,0.00,weatherlink.com 1.10,2013-10-10 02:24:00,
2013-10-09 22:39:00,46.5,44.0,30.34,NNW,342,0.0,0.0,91,0.00,,,0.00,weatherlink.com 1.10,2013-10-10 02:39:00,
2013-10-09 22:54:00,46.5,44.0,30.34,NNW,342,0.0,0.0,90,0.00,,,0.00,weatherlink.com 1.10,2013-10-10 02:54:00,
2013-10-09 23:09:00,45.9,44.0,30.33,NNW,342,0.0,0.0,91,0.00,,,0.00,weatherlink.com 1.10,2013-10-10 03:09:00,
2013-10-09 23:24:00,45.8,43.0,30.33,NNW,342,0.0,0.0,91,0.00,,,0.00,weatherlink.com 1.10,2013-10-10 03:24:00,
2013-10-09 23:39:00,45.8,43.0,30.33,NNW,342,0.0,0.0,90,0.00,,,0.00,weatherlink.com 1.10,2013-10-10 03:39:00,
2013-10-09 23:59:00,45.7,43.0,30.33,NNW,342,0.0,0.0,90,0.00,,,0.00,weatherlink.com 1.10,2013-10-10 03:59:00,